sensor_id;sensor_type;location;lat;lon;timestamp;temperature;humidity
63202;DHT22;49296;48.188;11.566;2023-04-29T00:00:15;12.05;82.91
63202;DHT22;49296;48.188;11.566;2023-04-29T00:02:42;11.98;83.04
63202;DHT22;49296;48.188;11.566;2023-04-29T00:05:09;11.94;83.29
63202;DHT22;49296;48.188;11.566;2023-04-29T00:07:36;11.91;83.44
63202;DHT22;49296;48.188;11.566;2023-04-29T00:10:03;11.93;83.41
63202;DHT22;49296;48.188;11.566;2023-04-29T00:12:30;11.86;83.53
63202;DHT22;49296;48.188;11.566;2023-04-29T00:14:57;11.79;83.74
63202;DHT22;49296;48.188;11.566;2023-04-29T00:17:26;11.82;83.76
63202;DHT22;49296;48.188;11.566;2023-04-29T00:19:53;11.82;83.68
63202;DHT22;49296;48.188;11.566;2023-04-29T00:22:20;11.83;83.91
63202;DHT22;49296;48.188;11.566;2023-04-29T00:24:47;11.80;83.87
63202;DHT22;49296;48.188;11.566;2023-04-29T00:27:15;11.75;84.14
63202;DHT22;49296;48.188;11.566;2023-04-29T00:29:43;11.72;84.34
63202;DHT22;49296;48.188;11.566;2023-04-29T00:32:10;11.65;84.60
63202;DHT22;49296;48.188;11.566;2023-04-29T00:34:38;11.69;84.63
63202;DHT22;49296;48.188;11.566;2023-04-29T00:37:05;11.63;84.73
63202;DHT22;49296;48.188;11.566;2023-04-29T00:39:32;11.65;84.69
63202;DHT22;49296;48.188;11.566;2023-04-29T00:41:59;11.68;84.76
63202;DHT22;49296;48.188;11.566;2023-04-29T00:44:28;11.62;85.02
63202;DHT22;49296;48.188;11.566;2023-04-29T00:46:55;11.63;85.10
63202;DHT22;49296;48.188;11.566;2023-04-29T00:49:21;11.69;85.05
63202;DHT22;49296;48.188;11.566;2023-04-29T00:51:50;11.76;84.97
63202;DHT22;49296;48.188;11.566;2023-04-29T00:54:17;11.80;84.92
63202;DHT22;49296;48.188;11.566;2023-04-29T00:56:44;11.79;85.10
63202;DHT22;49296;48.188;11.566;2023-04-29T00:59:15;11.77;85.22
63202;DHT22;49296;48.188;11.566;2023-04-29T01:01:42;11.79;85.27
63202;DHT22;49296;48.188;11.566;2023-04-29T01:04:09;11.79;85.35
63202;DHT22;49296;48.188;11.566;2023-04-29T01:06:57;11.89;85.38
63202;DHT22;49296;48.188;11.566;2023-04-29T01:09:42;11.87;85.27
63202;DHT22;49296;48.188;11.566;2023-04-29T01:12:17;11.86;85.35
63202;DHT22;49296;48.188;11.566;2023-04-29T01:14:50;11.84;85.47
63202;DHT22;49296;48.188;11.566;2023-04-29T01:17:24;11.89;85.54
63202;DHT22;49296;48.188;11.566;2023-04-29T01:19:53;11.91;85.49
63202;DHT22;49296;48.188;11.566;2023-04-29T01:22:22;11.89;85.51
63202;DHT22;49296;48.188;11.566;2023-04-29T01:24:50;11.91;85.41
63202;DHT22;49296;48.188;11.566;2023-04-29T01:27:27;11.87;85.39
63202;DHT22;49296;48.188;11.566;2023-04-29T01:30:00;11.93;85.41
63202;DHT22;49296;48.188;11.566;2023-04-29T01:32:36;11.90;85.46
63202;DHT22;49296;48.188;11.566;2023-04-29T01:35:14;11.89;85.63
63202;DHT22;49296;48.188;11.566;2023-04-29T01:37:50;11.90;85.58
63202;DHT22;49296;48.188;11.566;2023-04-29T01:40:25;11.87;85.80
63202;DHT22;49296;48.188;11.566;2023-04-29T01:42:58;11.84;85.89
63202;DHT22;49296;48.188;11.566;2023-04-29T01:45:26;11.91;85.76
63202;DHT22;49296;48.188;11.566;2023-04-29T01:47:54;11.93;85.77
63202;DHT22;49296;48.188;11.566;2023-04-29T01:50:21;11.89;85.86
63202;DHT22;49296;48.188;11.566;2023-04-29T01:52:48;11.89;85.99
63202;DHT22;49296;48.188;11.566;2023-04-29T01:55:15;11.95;85.88
63202;DHT22;49296;48.188;11.566;2023-04-29T01:57:43;11.98;85.88
63202;DHT22;49296;48.188;11.566;2023-04-29T02:00:10;11.98;85.98
63202;DHT22;49296;48.188;11.566;2023-04-29T02:02:37;11.95;86.02
63202;DHT22;49296;48.188;11.566;2023-04-29T02:05:05;12.04;85.89
63202;DHT22;49296;48.188;11.566;2023-04-29T02:07:32;12.03;85.82
63202;DHT22;49296;48.188;11.566;2023-04-29T02:10:00;12.03;85.92
63202;DHT22;49296;48.188;11.566;2023-04-29T02:12:27;12.03;85.94
63202;DHT22;49296;48.188;11.566;2023-04-29T02:14:55;12.07;85.97
63202;DHT22;49296;48.188;11.566;2023-04-29T02:17:24;12.14;85.72
63202;DHT22;49296;48.188;11.566;2023-04-29T02:19:51;12.11;85.77
63202;DHT22;49296;48.188;11.566;2023-04-29T02:22:19;12.14;85.62
63202;DHT22;49296;48.188;11.566;2023-04-29T02:24:46;12.10;85.65
63202;DHT22;49296;48.188;11.566;2023-04-29T02:27:13;12.08;85.86
63202;DHT22;49296;48.188;11.566;2023-04-29T02:29:40;12.10;85.78
63202;DHT22;49296;48.188;11.566;2023-04-29T02:32:08;12.04;86.11
63202;DHT22;49296;48.188;11.566;2023-04-29T02:34:35;12.08;86.09
63202;DHT22;49296;48.188;11.566;2023-04-29T02:37:02;12.08;85.92
63202;DHT22;49296;48.188;11.566;2023-04-29T02:39:29;12.14;85.93
63202;DHT22;49296;48.188;11.566;2023-04-29T02:41:56;12.11;85.99
63202;DHT22;49296;48.188;11.566;2023-04-29T02:44:23;12.16;85.98
63202;DHT22;49296;48.188;11.566;2023-04-29T02:46:50;12.11;85.99
63202;DHT22;49296;48.188;11.566;2023-04-29T02:49:18;12.21;86.06
63202;DHT22;49296;48.188;11.566;2023-04-29T02:51:45;12.18;86.26
63202;DHT22;49296;48.188;11.566;2023-04-29T02:54:14;12.22;86.21
63202;DHT22;49296;48.188;11.566;2023-04-29T02:56:41;12.25;86.16
63202;DHT22;49296;48.188;11.566;2023-04-29T02:59:08;12.21;86.31
63202;DHT22;49296;48.188;11.566;2023-04-29T03:01:35;12.27;86.23
63202;DHT22;49296;48.188;11.566;2023-04-29T03:04:03;12.25;86.32
63202;DHT22;49296;48.188;11.566;2023-04-29T03:06:31;12.28;86.38
63202;DHT22;49296;48.188;11.566;2023-04-29T03:08:58;12.28;86.45
63202;DHT22;49296;48.188;11.566;2023-04-29T03:11:25;12.29;86.29
63202;DHT22;49296;48.188;11.566;2023-04-29T03:13:52;12.32;86.31
63202;DHT22;49296;48.188;11.566;2023-04-29T03:16:18;12.29;86.46
63202;DHT22;49296;48.188;11.566;2023-04-29T03:18:46;12.32;86.36
63202;DHT22;49296;48.188;11.566;2023-04-29T03:21:13;12.31;86.55
63202;DHT22;49296;48.188;11.566;2023-04-29T03:23:41;12.29;86.57
63202;DHT22;49296;48.188;11.566;2023-04-29T03:26:09;12.34;86.63
63202;DHT22;49296;48.188;11.566;2023-04-29T03:28:35;12.35;86.52
63202;DHT22;49296;48.188;11.566;2023-04-29T03:31:02;12.38;86.49
63202;DHT22;49296;48.188;11.566;2023-04-29T03:33:29;12.38;86.44
63202;DHT22;49296;48.188;11.566;2023-04-29T03:35:56;12.44;86.38
63202;DHT22;49296;48.188;11.566;2023-04-29T03:38:23;12.39;86.50
63202;DHT22;49296;48.188;11.566;2023-04-29T03:40:51;12.37;86.49
63202;DHT22;49296;48.188;11.566;2023-04-29T03:43:18;12.35;86.49
63202;DHT22;49296;48.188;11.566;2023-04-29T03:45:45;12.35;86.63
63202;DHT22;49296;48.188;11.566;2023-04-29T03:48:12;12.34;86.52
63202;DHT22;49296;48.188;11.566;2023-04-29T03:50:39;12.34;86.38
63202;DHT22;49296;48.188;11.566;2023-04-29T03:53:06;12.34;86.42
63202;DHT22;49296;48.188;11.566;2023-04-29T03:55:33;12.39;86.39
63202;DHT22;49296;48.188;11.566;2023-04-29T03:58:01;12.32;86.43
63202;DHT22;49296;48.188;11.566;2023-04-29T04:00:28;12.35;86.26
63202;DHT22;49296;48.188;11.566;2023-04-29T04:02:55;12.29;86.25
63202;DHT22;49296;48.188;11.566;2023-04-29T04:05:23;12.24;86.44
63202;DHT22;49296;48.188;11.566;2023-04-29T04:07:50;12.28;86.38
63202;DHT22;49296;48.188;11.566;2023-04-29T04:10:17;12.21;86.54
63202;DHT22;49296;48.188;11.566;2023-04-29T04:12:44;12.24;86.48
63202;DHT22;49296;48.188;11.566;2023-04-29T04:15:13;12.24;86.43
63202;DHT22;49296;48.188;11.566;2023-04-29T04:17:41;12.24;86.47
63202;DHT22;49296;48.188;11.566;2023-04-29T04:20:09;12.21;86.57
63202;DHT22;49296;48.188;11.566;2023-04-29T04:22:36;12.17;86.54
63202;DHT22;49296;48.188;11.566;2023-04-29T04:25:03;12.18;86.71
63202;DHT22;49296;48.188;11.566;2023-04-29T04:27:30;12.21;86.68
63202;DHT22;49296;48.188;11.566;2023-04-29T04:29:57;12.31;86.42
63202;DHT22;49296;48.188;11.566;2023-04-29T04:32:25;12.25;86.42
63202;DHT22;49296;48.188;11.566;2023-04-29T04:34:52;12.25;86.52
63202;DHT22;49296;48.188;11.566;2023-04-29T04:37:19;12.24;86.55
63202;DHT22;49296;48.188;11.566;2023-04-29T04:39:46;12.29;86.47
63202;DHT22;49296;48.188;11.566;2023-04-29T04:42:13;12.32;86.37
63202;DHT22;49296;48.188;11.566;2023-04-29T04:44:40;12.31;86.45
63202;DHT22;49296;48.188;11.566;2023-04-29T04:47:07;12.38;86.26
63202;DHT22;49296;48.188;11.566;2023-04-29T04:49:35;12.32;86.57
63202;DHT22;49296;48.188;11.566;2023-04-29T04:52:02;12.41;86.30
63202;DHT22;49296;48.188;11.566;2023-04-29T04:54:29;12.45;86.19
63202;DHT22;49296;48.188;11.566;2023-04-29T04:56:56;12.48;86.19
63202;DHT22;49296;48.188;11.566;2023-04-29T04:59:22;12.49;86.13
63202;DHT22;49296;48.188;11.566;2023-04-29T05:01:49;12.52;86.15
63202;DHT22;49296;48.188;11.566;2023-04-29T05:06:45;12.60;85.97
63202;DHT22;49296;48.188;11.566;2023-04-29T05:09:11;12.66;85.94
63202;DHT22;49296;48.188;11.566;2023-04-29T05:11:38;12.67;85.94
63202;DHT22;49296;48.188;11.566;2023-04-29T05:14:06;12.66;86.00
63202;DHT22;49296;48.188;11.566;2023-04-29T05:16:33;12.73;85.90
63202;DHT22;49296;48.188;11.566;2023-04-29T05:18:59;12.72;86.10
63202;DHT22;49296;48.188;11.566;2023-04-29T05:21:26;12.70;86.14
63202;DHT22;49296;48.188;11.566;2023-04-29T05:23:55;12.72;86.26
63202;DHT22;49296;48.188;11.566;2023-04-29T05:26:22;12.70;86.19
63202;DHT22;49296;48.188;11.566;2023-04-29T05:28:49;12.73;86.25
63202;DHT22;49296;48.188;11.566;2023-04-29T05:31:15;12.67;86.54
63202;DHT22;49296;48.188;11.566;2023-04-29T05:33:42;12.67;86.70
63202;DHT22;49296;48.188;11.566;2023-04-29T05:36:09;12.70;86.57
63202;DHT22;49296;48.188;11.566;2023-04-29T05:38:36;12.72;86.63
63202;DHT22;49296;48.188;11.566;2023-04-29T05:41:04;12.77;86.66
63202;DHT22;49296;48.188;11.566;2023-04-29T05:43:31;12.77;86.67
63202;DHT22;49296;48.188;11.566;2023-04-29T05:45:58;12.83;86.51
63202;DHT22;49296;48.188;11.566;2023-04-29T05:48:25;12.77;86.79
63202;DHT22;49296;48.188;11.566;2023-04-29T05:50:52;12.76;87.03
63202;DHT22;49296;48.188;11.566;2023-04-29T05:53:20;12.82;86.93
63202;DHT22;49296;48.188;11.566;2023-04-29T05:55:47;12.79;86.99
63202;DHT22;49296;48.188;11.566;2023-04-29T05:58:16;12.80;86.97
63202;DHT22;49296;48.188;11.566;2023-04-29T06:00:43;12.86;86.81
63202;DHT22;49296;48.188;11.566;2023-04-29T06:03:10;12.87;86.86
63202;DHT22;49296;48.188;11.566;2023-04-29T06:05:37;12.87;86.82
63202;DHT22;49296;48.188;11.566;2023-04-29T06:08:05;12.80;86.88
63202;DHT22;49296;48.188;11.566;2023-04-29T06:10:32;12.83;86.93
63202;DHT22;49296;48.188;11.566;2023-04-29T06:13:01;13.00;86.88
63202;DHT22;49296;48.188;11.566;2023-04-29T06:15:29;12.97;86.86
63202;DHT22;49296;48.188;11.566;2023-04-29T06:17:56;12.99;86.95
63202;DHT22;49296;48.188;11.566;2023-04-29T06:20:23;13.04;86.88
63202;DHT22;49296;48.188;11.566;2023-04-29T06:22:50;13.04;86.85
63202;DHT22;49296;48.188;11.566;2023-04-29T06:25:16;13.04;86.69
63202;DHT22;49296;48.188;11.566;2023-04-29T06:27:43;13.04;86.57
63202;DHT22;49296;48.188;11.566;2023-04-29T06:30:11;13.03;86.65
63202;DHT22;49296;48.188;11.566;2023-04-29T06:32:39;13.03;86.46
63202;DHT22;49296;48.188;11.566;2023-04-29T06:35:06;13.10;86.36
63202;DHT22;49296;48.188;11.566;2023-04-29T06:37:33;13.18;86.02
63202;DHT22;49296;48.188;11.566;2023-04-29T06:40:00;13.18;86.14
63202;DHT22;49296;48.188;11.566;2023-04-29T06:42:30;13.22;86.05
63202;DHT22;49296;48.188;11.566;2023-04-29T06:44:57;13.28;86.14
63202;DHT22;49296;48.188;11.566;2023-04-29T06:47:24;13.34;86.03
63202;DHT22;49296;48.188;11.566;2023-04-29T06:49:52;13.36;85.68
63202;DHT22;49296;48.188;11.566;2023-04-29T06:52:19;13.46;85.87
63202;DHT22;49296;48.188;11.566;2023-04-29T06:54:46;13.55;85.58
63202;DHT22;49296;48.188;11.566;2023-04-29T06:57:13;13.52;84.64
63202;DHT22;49296;48.188;11.566;2023-04-29T06:59:39;13.53;84.73
63202;DHT22;49296;48.188;11.566;2023-04-29T07:02:06;13.63;84.76
63202;DHT22;49296;48.188;11.566;2023-04-29T07:04:33;13.70;84.24
63202;DHT22;49296;48.188;11.566;2023-04-29T07:07:03;13.81;84.16
63202;DHT22;49296;48.188;11.566;2023-04-29T07:09:30;13.84;83.60
63202;DHT22;49296;48.188;11.566;2023-04-29T07:11:57;13.93;83.51
63202;DHT22;49296;48.188;11.566;2023-04-29T07:14:24;13.98;82.76
63202;DHT22;49296;48.188;11.566;2023-04-29T07:16:54;14.04;82.83
63202;DHT22;49296;48.188;11.566;2023-04-29T07:19:21;14.15;82.72
63202;DHT22;49296;48.188;11.566;2023-04-29T07:21:48;14.20;82.87
63202;DHT22;49296;48.188;11.566;2023-04-29T07:24:16;14.21;82.56
63202;DHT22;49296;48.188;11.566;2023-04-29T07:26:44;14.28;82.46
63202;DHT22;49296;48.188;11.566;2023-04-29T07:29:10;14.39;82.36
63202;DHT22;49296;48.188;11.566;2023-04-29T07:31:37;14.33;81.65
63202;DHT22;49296;48.188;11.566;2023-04-29T07:34:04;14.36;80.87
63202;DHT22;49296;48.188;11.566;2023-04-29T07:36:31;14.36;81.03
63202;DHT22;49296;48.188;11.566;2023-04-29T07:38:58;14.42;80.62
63202;DHT22;49296;48.188;11.566;2023-04-29T07:41:27;14.45;81.00
63202;DHT22;49296;48.188;11.566;2023-04-29T07:43:54;14.52;80.78
63202;DHT22;49296;48.188;11.566;2023-04-29T07:46:20;14.52;80.71
63202;DHT22;49296;48.188;11.566;2023-04-29T07:48:48;14.60;79.86
63202;DHT22;49296;48.188;11.566;2023-04-29T07:51:15;14.57;78.63
63202;DHT22;49296;48.188;11.566;2023-04-29T07:53:41;14.72;78.35
63202;DHT22;49296;48.188;11.566;2023-04-29T07:56:09;14.73;78.68
63202;DHT22;49296;48.188;11.566;2023-04-29T07:58:37;14.81;78.50
63202;DHT22;49296;48.188;11.566;2023-04-29T08:01:05;14.87;78.58
63202;DHT22;49296;48.188;11.566;2023-04-29T08:03:32;14.87;78.26
63202;DHT22;49296;48.188;11.566;2023-04-29T08:06:00;14.87;78.29
63202;DHT22;49296;48.188;11.566;2023-04-29T08:08:28;14.84;78.51
63202;DHT22;49296;48.188;11.566;2023-04-29T08:10:55;14.85;77.93
63202;DHT22;49296;48.188;11.566;2023-04-29T08:13:23;14.95;77.29
63202;DHT22;49296;48.188;11.566;2023-04-29T08:15:51;15.02;77.14
63202;DHT22;49296;48.188;11.566;2023-04-29T08:18:18;14.97;76.59
63202;DHT22;49296;48.188;11.566;2023-04-29T08:20:46;15.02;76.93
63202;DHT22;49296;48.188;11.566;2023-04-29T08:23:14;15.15;76.11
63202;DHT22;49296;48.188;11.566;2023-04-29T08:25:41;15.32;76.28
63202;DHT22;49296;48.188;11.566;2023-04-29T08:28:09;15.40;75.51
63202;DHT22;49296;48.188;11.566;2023-04-29T08:30:38;15.50;74.60
63202;DHT22;49296;48.188;11.566;2023-04-29T08:33:07;15.69;74.83
63202;DHT22;49296;48.188;11.566;2023-04-29T08:35:34;15.74;73.93
63202;DHT22;49296;48.188;11.566;2023-04-29T08:38:03;15.62;73.93
63202;DHT22;49296;48.188;11.566;2023-04-29T08:40:33;15.56;74.33
63202;DHT22;49296;48.188;11.566;2023-04-29T08:43:02;15.63;74.04
63202;DHT22;49296;48.188;11.566;2023-04-29T08:45:29;15.64;72.48
63202;DHT22;49296;48.188;11.566;2023-04-29T08:48:00;15.74;73.11
63202;DHT22;49296;48.188;11.566;2023-04-29T08:50:29;15.77;73.21
63202;DHT22;49296;48.188;11.566;2023-04-29T08:52:57;15.70;73.71
63202;DHT22;49296;48.188;11.566;2023-04-29T08:55:23;15.70;73.48
63202;DHT22;49296;48.188;11.566;2023-04-29T08:57:53;15.81;73.09
63202;DHT22;49296;48.188;11.566;2023-04-29T09:00:21;15.86;73.15
63202;DHT22;49296;48.188;11.566;2023-04-29T09:02:52;15.79;73.30
63202;DHT22;49296;48.188;11.566;2023-04-29T09:05:20;15.81;73.22
63202;DHT22;49296;48.188;11.566;2023-04-29T09:07:49;15.71;73.05
63202;DHT22;49296;48.188;11.566;2023-04-29T09:10:17;15.67;73.92
63202;DHT22;49296;48.188;11.566;2023-04-29T09:12:44;15.62;71.05
63202;DHT22;49296;48.188;11.566;2023-04-29T09:15:11;15.63;71.44
63202;DHT22;49296;48.188;11.566;2023-04-29T09:17:39;15.76;71.37
63202;DHT22;49296;48.188;11.566;2023-04-29T09:20:24;15.90;70.57
63202;DHT22;49296;48.188;11.566;2023-04-29T09:22:54;15.96;69.67
63202;DHT22;49296;48.188;11.566;2023-04-29T09:25:22;16.02;69.46
63202;DHT22;49296;48.188;11.566;2023-04-29T09:27:49;16.00;68.98
63202;DHT22;49296;48.188;11.566;2023-04-29T09:30:16;16.01;69.29
63202;DHT22;49296;48.188;11.566;2023-04-29T09:32:44;16.11;69.38
63202;DHT22;49296;48.188;11.566;2023-04-29T09:35:22;16.24;69.70
63202;DHT22;49296;48.188;11.566;2023-04-29T09:37:50;16.32;69.80
63202;DHT22;49296;48.188;11.566;2023-04-29T09:40:29;16.39;69.58
63202;DHT22;49296;48.188;11.566;2023-04-29T09:42:57;16.39;68.99
63202;DHT22;49296;48.188;11.566;2023-04-29T09:45:34;16.38;65.93
63202;DHT22;49296;48.188;11.566;2023-04-29T09:48:01;16.50;65.34
63202;DHT22;49296;48.188;11.566;2023-04-29T09:50:29;16.61;66.17
63202;DHT22;49296;48.188;11.566;2023-04-29T09:52:56;16.71;66.95
63202;DHT22;49296;48.188;11.566;2023-04-29T09:55:24;16.85;66.34
63202;DHT22;49296;48.188;11.566;2023-04-29T09:57:52;16.98;66.97
63202;DHT22;49296;48.188;11.566;2023-04-29T10:00:19;16.81;68.47
63202;DHT22;49296;48.188;11.566;2023-04-29T10:02:47;16.63;69.77
63202;DHT22;49296;48.188;11.566;2023-04-29T10:05:15;16.33;70.80
63202;DHT22;49296;48.188;11.566;2023-04-29T10:07:45;16.26;71.67
63202;DHT22;49296;48.188;11.566;2023-04-29T10:10:13;16.07;71.70
63202;DHT22;49296;48.188;11.566;2023-04-29T10:12:41;16.02;72.05
63202;DHT22;49296;48.188;11.566;2023-04-29T10:15:17;15.94;71.58
63202;DHT22;49296;48.188;11.566;2023-04-29T10:17:48;15.90;71.34
63202;DHT22;49296;48.188;11.566;2023-04-29T10:20:21;15.87;71.84
63202;DHT22;49296;48.188;11.566;2023-04-29T10:22:50;15.98;72.18
63202;DHT22;49296;48.188;11.566;2023-04-29T10:25:18;16.09;71.19
63202;DHT22;49296;48.188;11.566;2023-04-29T10:27:47;16.19;70.92
63202;DHT22;49296;48.188;11.566;2023-04-29T10:30:17;16.39;69.27
63202;DHT22;49296;48.188;11.566;2023-04-29T10:32:45;16.45;68.52
63202;DHT22;49296;48.188;11.566;2023-04-29T10:35:13;16.52;67.44
63202;DHT22;49296;48.188;11.566;2023-04-29T10:37:41;16.66;67.48
63202;DHT22;49296;48.188;11.566;2023-04-29T10:40:11;16.84;67.24
63202;DHT22;49296;48.188;11.566;2023-04-29T10:42:44;17.00;67.46
63202;DHT22;49296;48.188;11.566;2023-04-29T10:45:20;17.01;67.26
63202;DHT22;49296;48.188;11.566;2023-04-29T10:48:09;16.87;65.78
63202;DHT22;49296;48.188;11.566;2023-04-29T10:50:59;16.73;66.47
63202;DHT22;49296;48.188;11.566;2023-04-29T10:53:27;16.71;67.78
63202;DHT22;49296;48.188;11.566;2023-04-29T10:55:56;16.53;66.16
63202;DHT22;49296;48.188;11.566;2023-04-29T10:58:38;16.53;65.79
63202;DHT22;49296;48.188;11.566;2023-04-29T11:01:10;16.69;65.54
63202;DHT22;49296;48.188;11.566;2023-04-29T11:03:50;16.59;64.52
63202;DHT22;49296;48.188;11.566;2023-04-29T11:06:21;16.57;64.93
63202;DHT22;49296;48.188;11.566;2023-04-29T11:08:59;16.78;65.68
63202;DHT22;49296;48.188;11.566;2023-04-29T11:11:42;17.04;65.37
63202;DHT22;49296;48.188;11.566;2023-04-29T11:14:09;17.16;64.22
63202;DHT22;49296;48.188;11.566;2023-04-29T11:16:45;17.10;63.84
63202;DHT22;49296;48.188;11.566;2023-04-29T11:19:14;17.03;63.59
63202;DHT22;49296;48.188;11.566;2023-04-29T11:21:41;17.03;62.64
63202;DHT22;49296;48.188;11.566;2023-04-29T11:24:09;16.98;62.19
63202;DHT22;49296;48.188;11.566;2023-04-29T11:26:37;17.04;62.63
63202;DHT22;49296;48.188;11.566;2023-04-29T11:29:04;17.04;61.26
63202;DHT22;49296;48.188;11.566;2023-04-29T11:31:32;16.91;60.90
63202;DHT22;49296;48.188;11.566;2023-04-29T11:34:04;17.11;60.61
63202;DHT22;49296;48.188;11.566;2023-04-29T11:36:32;17.21;60.14
63202;DHT22;49296;48.188;11.566;2023-04-29T11:39:00;17.36;60.17
63202;DHT22;49296;48.188;11.566;2023-04-29T11:41:28;17.45;59.89
63202;DHT22;49296;48.188;11.566;2023-04-29T11:43:56;17.50;59.96
63202;DHT22;49296;48.188;11.566;2023-04-29T11:46:23;17.46;59.03
63202;DHT22;49296;48.188;11.566;2023-04-29T11:48:50;17.40;58.60
63202;DHT22;49296;48.188;11.566;2023-04-29T11:51:18;17.35;58.89
63202;DHT22;49296;48.188;11.566;2023-04-29T11:53:46;17.36;58.39
63202;DHT22;49296;48.188;11.566;2023-04-29T11:56:13;17.51;57.94
63202;DHT22;49296;48.188;11.566;2023-04-29T11:58:41;17.74;58.06
63202;DHT22;49296;48.188;11.566;2023-04-29T12:01:09;17.78;57.39
63202;DHT22;49296;48.188;11.566;2023-04-29T12:03:36;17.75;57.35
63202;DHT22;49296;48.188;11.566;2023-04-29T12:06:03;17.64;56.62
63202;DHT22;49296;48.188;11.566;2023-04-29T12:08:31;17.51;56.23
63202;DHT22;49296;48.188;11.566;2023-04-29T12:10:59;17.54;56.22
63202;DHT22;49296;48.188;11.566;2023-04-29T12:13:28;17.62;56.14
63202;DHT22;49296;48.188;11.566;2023-04-29T12:15:56;17.97;56.69
63202;DHT22;49296;48.188;11.566;2023-04-29T12:18:28;17.91;55.78
63202;DHT22;49296;48.188;11.566;2023-04-29T12:20:55;17.70;56.61
63202;DHT22;49296;48.188;11.566;2023-04-29T12:23:25;17.71;56.72
63202;DHT22;49296;48.188;11.566;2023-04-29T12:25:55;17.90;57.36
63202;DHT22;49296;48.188;11.566;2023-04-29T12:28:22;17.91;56.53
63202;DHT22;49296;48.188;11.566;2023-04-29T12:30:50;17.83;56.81
63202;DHT22;49296;48.188;11.566;2023-04-29T12:33:18;17.92;55.59
63202;DHT22;49296;48.188;11.566;2023-04-29T12:35:46;18.06;56.07
63202;DHT22;49296;48.188;11.566;2023-04-29T12:38:15;18.08;56.64
63202;DHT22;49296;48.188;11.566;2023-04-29T12:40:43;18.26;55.95
63202;DHT22;49296;48.188;11.566;2023-04-29T12:43:12;18.18;56.08
63202;DHT22;49296;48.188;11.566;2023-04-29T12:45:39;18.63;54.69
63202;DHT22;49296;48.188;11.566;2023-04-29T12:48:06;18.80;54.46
63202;DHT22;49296;48.188;11.566;2023-04-29T12:50:34;18.50;54.26
63202;DHT22;49296;48.188;11.566;2023-04-29T12:53:02;18.53;54.32
63202;DHT22;49296;48.188;11.566;2023-04-29T12:55:31;18.75;54.37
63202;DHT22;49296;48.188;11.566;2023-04-29T12:58:00;18.64;53.84
63202;DHT22;49296;48.188;11.566;2023-04-29T13:00:29;18.95;53.82
63202;DHT22;49296;48.188;11.566;2023-04-29T13:02:56;19.34;53.83
63202;DHT22;49296;48.188;11.566;2023-04-29T13:05:23;19.66;53.48
63202;DHT22;49296;48.188;11.566;2023-04-29T13:07:51;19.40;51.63
63202;DHT22;49296;48.188;11.566;2023-04-29T13:10:18;19.45;50.50
63202;DHT22;49296;48.188;11.566;2023-04-29T13:12:45;20.08;49.66
63202;DHT22;49296;48.188;11.566;2023-04-29T13:15:12;19.57;51.09
63202;DHT22;49296;48.188;11.566;2023-04-29T13:17:41;19.88;50.76
63202;DHT22;49296;48.188;11.566;2023-04-29T13:20:09;20.61;49.96
63202;DHT22;49296;48.188;11.566;2023-04-29T13:22:36;20.90;49.82
63202;DHT22;49296;48.188;11.566;2023-04-29T13:25:04;20.57;48.73
63202;DHT22;49296;48.188;11.566;2023-04-29T13:27:31;20.85;48.68
63202;DHT22;49296;48.188;11.566;2023-04-29T13:29:58;20.85;48.25
63202;DHT22;49296;48.188;11.566;2023-04-29T13:32:26;20.60;48.97
63202;DHT22;49296;48.188;11.566;2023-04-29T13:34:54;20.19;49.50
63202;DHT22;49296;48.188;11.566;2023-04-29T13:37:22;20.78;47.72
63202;DHT22;49296;48.188;11.566;2023-04-29T13:39:49;19.68;49.03
63202;DHT22;49296;48.188;11.566;2023-04-29T13:42:16;19.16;50.84
63202;DHT22;49296;48.188;11.566;2023-04-29T13:44:43;20.51;47.77
63202;DHT22;49296;48.188;11.566;2023-04-29T13:47:11;21.12;47.25
63202;DHT22;49296;48.188;11.566;2023-04-29T13:49:39;20.68;47.16
63202;DHT22;49296;48.188;11.566;2023-04-29T13:52:07;21.19;46.54
63202;DHT22;49296;48.188;11.566;2023-04-29T13:54:34;21.53;46.78
63202;DHT22;49296;48.188;11.566;2023-04-29T13:57:01;20.91;48.56
63202;DHT22;49296;48.188;11.566;2023-04-29T13:59:29;20.73;49.50
63202;DHT22;49296;48.188;11.566;2023-04-29T14:01:57;20.80;49.49
63202;DHT22;49296;48.188;11.566;2023-04-29T14:04:24;21.60;47.84
63202;DHT22;49296;48.188;11.566;2023-04-29T14:06:51;20.20;50.00
63202;DHT22;49296;48.188;11.566;2023-04-29T14:09:20;19.89;51.36
63202;DHT22;49296;48.188;11.566;2023-04-29T14:11:49;20.23;50.87
63202;DHT22;49296;48.188;11.566;2023-04-29T14:14:16;20.44;50.48
63202;DHT22;49296;48.188;11.566;2023-04-29T14:16:43;20.81;49.55
63202;DHT22;49296;48.188;11.566;2023-04-29T14:19:10;21.34;49.12
63202;DHT22;49296;48.188;11.566;2023-04-29T14:21:37;21.44;47.66
63202;DHT22;49296;48.188;11.566;2023-04-29T14:24:04;21.61;48.25
63202;DHT22;49296;48.188;11.566;2023-04-29T14:26:34;21.20;48.84
63202;DHT22;49296;48.188;11.566;2023-04-29T14:29:01;21.51;47.81
63202;DHT22;49296;48.188;11.566;2023-04-29T14:31:29;21.16;48.45
63202;DHT22;49296;48.188;11.566;2023-04-29T14:33:57;21.02;48.71
63202;DHT22;49296;48.188;11.566;2023-04-29T14:36:24;21.23;47.90
63202;DHT22;49296;48.188;11.566;2023-04-29T14:38:51;21.44;48.18
63202;DHT22;49296;48.188;11.566;2023-04-29T14:41:18;21.27;47.49
63202;DHT22;49296;48.188;11.566;2023-04-29T14:43:47;21.43;47.14
63202;DHT22;49296;48.188;11.566;2023-04-29T14:46:13;21.58;46.73
63202;DHT22;49296;48.188;11.566;2023-04-29T14:48:40;21.08;47.78
63202;DHT22;49296;48.188;11.566;2023-04-29T14:51:08;21.46;46.29
63202;DHT22;49296;48.188;11.566;2023-04-29T14:53:35;21.47;46.57
63202;DHT22;49296;48.188;11.566;2023-04-29T14:56:03;21.50;46.29
63202;DHT22;49296;48.188;11.566;2023-04-29T14:58:33;21.95;45.56
63202;DHT22;49296;48.188;11.566;2023-04-29T15:01:02;21.67;46.72
63202;DHT22;49296;48.188;11.566;2023-04-29T15:03:29;20.95;47.17
63202;DHT22;49296;48.188;11.566;2023-04-29T15:05:56;21.34;47.04
63202;DHT22;49296;48.188;11.566;2023-04-29T15:08:23;21.25;46.95
63202;DHT22;49296;48.188;11.566;2023-04-29T15:10:50;20.92;48.12
63202;DHT22;49296;48.188;11.566;2023-04-29T15:13:18;20.84;48.12
63202;DHT22;49296;48.188;11.566;2023-04-29T15:15:45;20.41;48.59
63202;DHT22;49296;48.188;11.566;2023-04-29T15:18:13;20.51;49.27
63202;DHT22;49296;48.188;11.566;2023-04-29T15:20:40;20.36;49.25
63202;DHT22;49296;48.188;11.566;2023-04-29T15:23:13;20.05;48.81